PWSweather.com
Personal Weather Stations
Station Observations
THAIWX
Pa Daet, Chiang MaiTH 50100

Pa DaetChiang MaiTH 50100

Lat: 18.766158, Lon: 98.97553

Elevation: 1007

Station Type: LaCrosse WS2315

http://www.ThaiWx.yolasite.com/

High Low Average
Temperature 97.5°F36.4°C 74.5°F23.6°C 89.4°F31.9°C
Dew Point 64.2°F17.9°C 52.7°F11.5°C 58.8°F14.9°C
Winds 5.9 mph 9.5 kmh Calm Calm 3.0 mph S4.8 kmh S
Wind Gusts 14.3 mph23.0 kmh -- 8.0 mph12.9 kmh
Humidity 64% 23% 38%
Pressure 29.96 in1014.6 mb 29.75 in1007.5 mb -
Precipitation 0.00 in0.0 mm - -
Hour Temp Dew Point Humidity Winds Wind Gusts Pressure Precip Precip Rate Daily Precip Total
12:14 AM 81.3°F27.4°C 57.8°F14.3°C 45% Calm Calm 1.6 mph2.6 kmh 29.90 in1012.5 mb 0.00 in0.0 mm 0.00 in0.0 mm 0.00 in0.0 mm
12:44 AM 80.6°F27.0°C 59.0°F15.0°C 48% Calm Calm -- 29.90 in1012.5 mb 0.00 in0.0 mm 0.00 in0.0 mm 0.00 in0.0 mm
01:14 AM 80.1°F26.7°C 59.8°F15.4°C 50% Calm Calm -- 29.89 in1012.2 mb 0.00 in0.0 mm 0.00 in0.0 mm 0.00 in0.0 mm
01:45 AM 79.0°F26.1°C 59.8°F15.4°C 52% Calm Calm -- 29.89 in1012.2 mb 0.00 in0.0 mm 0.00 in0.0 mm 0.00 in0.0 mm
02:15 AM 78.1°F25.6°C 60.0°F15.6°C 54% Calm Calm -- 29.89 in1012.2 mb 0.00 in0.0 mm 0.00 in0.0 mm 0.00 in0.0 mm
02:45 AM 77.4°F25.2°C 60.4°F15.8°C 56% Calm Calm -- 29.88 in1011.9 mb 0.00 in0.0 mm 0.00 in0.0 mm 0.00 in0.0 mm
03:15 AM 76.8°F24.9°C 60.4°F15.8°C 57% Calm Calm -- 29.88 in1011.9 mb 0.00 in0.0 mm 0.00 in0.0 mm 0.00 in0.0 mm
03:45 AM 76.3°F24.6°C 60.4°F15.8°C 58% Calm Calm -- 29.88 in1011.9 mb 0.00 in0.0 mm 0.00 in0.0 mm 0.00 in0.0 mm
04:15 AM 75.7°F24.3°C 60.4°F15.8°C 59% Calm Calm -- 29.88 in1011.9 mb 0.00 in0.0 mm 0.00 in0.0 mm 0.00 in0.0 mm
04:45 AM 75.6°F24.2°C 60.8°F16.0°C 60% Calm Calm -- 29.89 in1012.2 mb 0.00 in0.0 mm 0.00 in0.0 mm 0.00 in0.0 mm
05:16 AM 75.6°F24.2°C 61.2°F16.2°C 61% Calm Calm -- 29.88 in1011.9 mb 0.00 in0.0 mm 0.00 in0.0 mm 0.00 in0.0 mm
05:46 AM 75.4°F24.1°C 61.0°F16.1°C 61% Calm Calm -- 29.89 in1012.2 mb 0.00 in0.0 mm 0.00 in0.0 mm 0.00 in0.0 mm
06:16 AM 75.0°F23.9°C 61.1°F16.2°C 62% Calm Calm -- 29.90 in1012.5 mb 0.00 in0.0 mm 0.00 in0.0 mm 0.00 in0.0 mm
06:46 AM 74.8°F23.8°C 60.9°F16.1°C 62% Calm Calm -- 29.91 in1012.9 mb 0.00 in0.0 mm 0.00 in0.0 mm 0.00 in0.0 mm
07:16 AM 74.5°F23.6°C 61.5°F16.4°C 64% Calm Calm -- 29.92 in1013.2 mb 0.00 in0.0 mm 0.00 in0.0 mm 0.00 in0.0 mm
07:45 AM 75.0°F23.9°C 62.0°F16.7°C 64% 1.6 mph NE2.6 kmh NE 2.0 mph3.2 kmh 29.93 in1013.5 mb 0.00 in0.0 mm 0.00 in0.0 mm 0.00 in0.0 mm
08:15 AM 76.6°F24.8°C 61.2°F16.2°C 59% 1.9 mph NNE3.1 kmh NNE 3.1 mph5.0 kmh 29.94 in1013.9 mb 0.00 in0.0 mm 0.00 in0.0 mm 0.00 in0.0 mm
08:45 AM 78.1°F25.6°C 61.6°F16.4°C 57% Calm Calm 2.9 mph4.7 kmh 29.95 in1014.2 mb 0.00 in0.0 mm 0.00 in0.0 mm 0.00 in0.0 mm
09:15 AM 80.1°F26.7°C 61.3°F16.3°C 53% 1.5 mph SE2.4 kmh SE 5.1 mph8.2 kmh 29.96 in1014.6 mb 0.00 in0.0 mm 0.00 in0.0 mm 0.00 in0.0 mm
09:45 AM 82.0°F27.8°C 62.1°F16.7°C 51% 2.2 mph SE3.5 kmh SE 6.0 mph9.7 kmh 29.95 in1014.2 mb 0.00 in0.0 mm 0.00 in0.0 mm 0.00 in0.0 mm
10:15 AM 84.2°F29.0°C 63.7°F17.6°C 50% 5.2 mph ESE8.4 kmh ESE 6.9 mph11.1 kmh 29.96 in1014.6 mb 0.00 in0.0 mm 0.00 in0.0 mm 0.00 in0.0 mm
10:45 AM 86.9°F30.5°C 64.2°F17.9°C 47% 3.6 mph SW5.8 kmh SW 7.6 mph12.2 kmh 29.94 in1013.9 mb 0.00 in0.0 mm 0.00 in0.0 mm 0.00 in0.0 mm
11:16 AM 88.5°F31.4°C 61.8°F16.6°C 41% 3.6 mph SE5.8 kmh SE 6.9 mph11.1 kmh 29.93 in1013.5 mb 0.00 in0.0 mm 0.00 in0.0 mm 0.00 in0.0 mm
11:46 AM 89.4°F31.9°C 59.5°F15.3°C 37% 4.4 mph ESE7.1 kmh ESE 8.5 mph13.7 kmh 29.91 in1012.9 mb 0.00 in0.0 mm 0.00 in0.0 mm 0.00 in0.0 mm
12:16 PM 90.3°F32.4°C 59.5°F15.3°C 36% 4.8 mph SE7.7 kmh SE 12.5 mph20.1 kmh 29.89 in1012.2 mb 0.00 in0.0 mm 0.00 in0.0 mm 0.00 in0.0 mm
12:46 PM 91.6°F33.1°C 57.5°F14.2°C 32% 5.9 mph SE9.5 kmh SE 13.9 mph22.4 kmh 29.87 in1011.5 mb 0.00 in0.0 mm 0.00 in0.0 mm 0.00 in0.0 mm
01:16 PM 93.0°F33.9°C 57.1°F13.9°C 30% 3.8 mph SW6.1 kmh SW 10.1 mph16.3 kmh 29.85 in1010.8 mb 0.00 in0.0 mm 0.00 in0.0 mm 0.00 in0.0 mm
01:47 PM 93.9°F34.4°C 54.5°F12.5°C 27% 3.9 mph SW6.3 kmh SW 12.3 mph19.8 kmh 29.82 in1009.8 mb 0.00 in0.0 mm 0.00 in0.0 mm 0.00 in0.0 mm
02:17 PM 95.4°F35.2°C 53.5°F11.9°C 25% 2.6 mph SW4.2 kmh SW 14.3 mph23.0 kmh 29.81 in1009.5 mb 0.00 in0.0 mm 0.00 in0.0 mm 0.00 in0.0 mm
02:47 PM 96.4°F35.8°C 53.3°F11.8°C 24% 2.5 mph NW4.0 kmh NW 12.5 mph20.1 kmh 29.79 in1008.8 mb 0.00 in0.0 mm 0.00 in0.0 mm 0.00 in0.0 mm
03:17 PM 97.0°F36.1°C 52.7°F11.5°C 23% 3.6 mph SW5.8 kmh SW 11.4 mph18.3 kmh 29.77 in1008.1 mb 0.00 in0.0 mm 0.00 in0.0 mm 0.00 in0.0 mm
03:47 PM 97.3°F36.3°C 54.1°F12.3°C 24% 3.6 mph SW5.8 kmh SW 10.3 mph16.6 kmh 29.75 in1007.5 mb 0.00 in0.0 mm 0.00 in0.0 mm 0.00 in0.0 mm
04:17 PM 97.5°F36.4°C 54.3°F12.4°C 24% 3.6 mph SSW5.8 kmh SSW 14.3 mph23.0 kmh 29.75 in1007.5 mb 0.00 in0.0 mm 0.00 in0.0 mm 0.00 in0.0 mm
04:47 PM 97.2°F36.2°C 56.2°F13.4°C 26% 2.8 mph SW4.5 kmh SW 10.5 mph16.9 kmh 29.75 in1007.5 mb 0.00 in0.0 mm 0.00 in0.0 mm 0.00 in0.0 mm
05:17 PM 96.6°F35.9°C 56.8°F13.8°C 27% 5.5 mph SW8.9 kmh SW 11.2 mph18.0 kmh 29.75 in1007.5 mb 0.00 in0.0 mm 0.00 in0.0 mm 0.00 in0.0 mm
05:48 PM 96.1°F35.6°C 58.6°F14.8°C 29% 3.6 mph SW5.8 kmh SW 7.6 mph12.2 kmh 29.75 in1007.5 mb 0.00 in0.0 mm 0.00 in0.0 mm 0.00 in0.0 mm
06:18 PM 95.4°F35.2°C 59.1°F15.1°C 30% 3.5 mph SW5.6 kmh SW 6.3 mph10.1 kmh 29.76 in1007.8 mb 0.00 in0.0 mm 0.00 in0.0 mm 0.00 in0.0 mm
06:48 PM 94.6°F34.8°C 59.3°F15.2°C 31% 2.3 mph SW3.7 kmh SW 4.0 mph6.4 kmh 29.77 in1008.1 mb 0.00 in0.0 mm 0.00 in0.0 mm 0.00 in0.0 mm
07:18 PM 93.4°F34.1°C 59.8°F15.4°C 33% Calm Calm 2.0 mph3.2 kmh 29.77 in1008.1 mb 0.00 in0.0 mm 0.00 in0.0 mm 0.00 in0.0 mm
07:47 PM 91.9°F33.3°C 59.4°F15.2°C 34% 3.0 mph SW4.8 kmh SW 4.5 mph7.2 kmh 29.79 in1008.8 mb 0.00 in0.0 mm 0.00 in0.0 mm 0.00 in0.0 mm
08:17 PM 91.2°F32.9°C 58.0°F14.4°C 33% 3.9 mph SW6.3 kmh SW 9.2 mph14.8 kmh 29.80 in1009.1 mb 0.00 in0.0 mm 0.00 in0.0 mm 0.00 in0.0 mm
08:47 PM 90.5°F32.5°C 58.9°F14.9°C 35% 2.2 mph SSE3.5 kmh SSE 6.0 mph9.7 kmh 29.81 in1009.5 mb 0.00 in0.0 mm 0.00 in0.0 mm 0.00 in0.0 mm
09:17 PM 88.9°F31.6°C 58.3°F14.6°C 36% 4.9 mph SW7.9 kmh SW 8.5 mph13.7 kmh 29.82 in1009.8 mb 0.00 in0.0 mm 0.00 in0.0 mm 0.00 in0.0 mm
09:47 PM 89.1°F31.7°C 59.2°F15.1°C 37% 2.0 mph S3.2 kmh S 7.6 mph12.2 kmh 29.84 in1010.5 mb 0.00 in0.0 mm 0.00 in0.0 mm 0.00 in0.0 mm
10:17 PM 87.6°F30.9°C 60.5°F15.8°C 40% 2.5 mph S4.0 kmh S 6.9 mph11.1 kmh 29.85 in1010.8 mb 0.00 in0.0 mm 0.00 in0.0 mm 0.00 in0.0 mm
10:47 PM 86.7°F30.4°C 60.3°F15.7°C 41% 3.3 mph SW5.3 kmh SW 6.3 mph10.1 kmh 29.86 in1011.2 mb 0.00 in0.0 mm 0.00 in0.0 mm 0.00 in0.0 mm
11:17 PM 85.8°F29.9°C 59.5°F15.3°C 41% 4.1 mph SW6.6 kmh SW 6.3 mph10.1 kmh 29.86 in1011.2 mb 0.00 in0.0 mm 0.00 in0.0 mm 0.00 in0.0 mm
11:47 PM 85.8°F29.9°C 60.1°F15.6°C 42% Calm Calm 3.1 mph5.0 kmh 29.86 in1011.2 mb 0.00 in0.0 mm 0.00 in0.0 mm 0.00 in0.0 mm